sensor_id;sensor_type;location;lat;lon;timestamp;P1;durP1;ratioP1;P2;durP2;ratioP2
74892;SDS011;63446;56.272;43.922;2023-09-12T00:00:16;14.05;;;5.93;;
74892;SDS011;63446;56.272;43.922;2023-09-12T00:02:42;14.97;;;6.17;;
74892;SDS011;63446;56.272;43.922;2023-09-12T00:05:07;11.13;;;5.55;;
74892;SDS011;63446;56.272;43.922;2023-09-12T00:07:34;13.00;;;5.22;;
74892;SDS011;63446;56.272;43.922;2023-09-12T00:10:02;10.85;;;5.60;;
74892;SDS011;63446;56.272;43.922;2023-09-12T00:12:29;12.68;;;5.55;;
74892;SDS011;63446;56.272;43.922;2023-09-12T00:14:55;11.68;;;5.45;;
74892;SDS011;63446;56.272;43.922;2023-09-12T00:17:22;15.25;;;5.70;;
74892;SDS011;63446;56.272;43.922;2023-09-12T00:19:48;10.13;;;5.00;;
74892;SDS011;63446;56.272;43.922;2023-09-12T00:22:14;17.00;;;5.65;;
74892;SDS011;63446;56.272;43.922;2023-09-12T00:24:40;12.07;;;5.60;;
74892;SDS011;63446;56.272;43.922;2023-09-12T00:27:07;12.20;;;5.73;;
74892;SDS011;63446;56.272;43.922;2023-09-12T00:29:33;11.23;;;5.20;;
74892;SDS011;63446;56.272;43.922;2023-09-12T00:31:59;10.18;;;5.22;;
74892;SDS011;63446;56.272;43.922;2023-09-12T00:34:25;11.80;;;5.50;;
74892;SDS011;63446;56.272;43.922;2023-09-12T00:36:50;10.77;;;5.03;;
74892;SDS011;63446;56.272;43.922;2023-09-12T00:39:16;12.43;;;5.43;;
74892;SDS011;63446;56.272;43.922;2023-09-12T00:41:43;10.18;;;5.03;;
74892;SDS011;63446;56.272;43.922;2023-09-12T00:44:09;13.98;;;5.10;;
74892;SDS011;63446;56.272;43.922;2023-09-12T00:46:36;11.70;;;6.15;;
74892;SDS011;63446;56.272;43.922;2023-09-12T00:49:02;11.23;;;5.47;;
74892;SDS011;63446;56.272;43.922;2023-09-12T00:51:29;13.63;;;5.77;;
74892;SDS011;63446;56.272;43.922;2023-09-12T00:53:57;11.70;;;4.90;;
74892;SDS011;63446;56.272;43.922;2023-09-12T00:56:23;12.23;;;5.30;;
74892;SDS011;63446;56.272;43.922;2023-09-12T00:58:49;11.98;;;5.40;;
74892;SDS011;63446;56.272;43.922;2023-09-12T01:01:20;10.98;;;5.60;;
74892;SDS011;63446;56.272;43.922;2023-09-12T01:03:47;11.90;;;4.97;;
74892;SDS011;63446;56.272;43.922;2023-09-12T01:06:14;14.93;;;5.40;;
74892;SDS011;63446;56.272;43.922;2023-09-12T01:08:45;12.20;;;4.90;;
74892;SDS011;63446;56.272;43.922;2023-09-12T01:11:11;9.95;;;4.65;;
74892;SDS011;63446;56.272;43.922;2023-09-12T01:13:39;10.85;;;5.07;;
74892;SDS011;63446;56.272;43.922;2023-09-12T01:16:05;12.07;;;5.15;;
74892;SDS011;63446;56.272;43.922;2023-09-12T01:18:32;10.20;;;4.72;;
74892;SDS011;63446;56.272;43.922;2023-09-12T01:29:22;12.00;;;5.18;;
74892;SDS011;63446;56.272;43.922;2023-09-12T01:31:49;13.40;;;5.53;;
74892;SDS011;63446;56.272;43.922;2023-09-12T01:34:17;10.10;;;4.82;;
74892;SDS011;63446;56.272;43.922;2023-09-12T01:36:47;10.50;;;4.70;;
74892;SDS011;63446;56.272;43.922;2023-09-12T01:39:13;16.20;;;5.03;;
74892;SDS011;63446;56.272;43.922;2023-09-12T01:41:39;13.15;;;5.38;;
74892;SDS011;63446;56.272;43.922;2023-09-12T01:44:08;10.63;;;4.53;;
74892;SDS011;63446;56.272;43.922;2023-09-12T01:46:36;11.90;;;5.07;;
74892;SDS011;63446;56.272;43.922;2023-09-12T01:49:04;11.18;;;5.15;;
74892;SDS011;63446;56.272;43.922;2023-09-12T01:51:31;12.20;;;4.85;;
74892;SDS011;63446;56.272;43.922;2023-09-12T01:53:57;13.85;;;4.80;;
74892;SDS011;63446;56.272;43.922;2023-09-12T01:56:23;12.27;;;5.00;;
74892;SDS011;63446;56.272;43.922;2023-09-12T01:58:51;13.30;;;4.90;;
74892;SDS011;63446;56.272;43.922;2023-09-12T02:01:17;15.88;;;5.00;;
74892;SDS011;63446;56.272;43.922;2023-09-12T02:03:43;13.13;;;4.90;;
74892;SDS011;63446;56.272;43.922;2023-09-12T02:06:08;12.33;;;4.80;;
74892;SDS011;63446;56.272;43.922;2023-09-12T02:08:34;12.50;;;4.72;;
74892;SDS011;63446;56.272;43.922;2023-09-12T02:11:00;12.17;;;4.90;;
74892;SDS011;63446;56.272;43.922;2023-09-12T02:13:27;11.10;;;4.55;;
74892;SDS011;63446;56.272;43.922;2023-09-12T02:16:00;15.05;;;5.45;;
74892;SDS011;63446;56.272;43.922;2023-09-12T02:18:28;11.63;;;5.32;;
74892;SDS011;63446;56.272;43.922;2023-09-12T02:20:53;12.93;;;5.90;;
74892;SDS011;63446;56.272;43.922;2023-09-12T02:23:23;12.27;;;4.97;;
74892;SDS011;63446;56.272;43.922;2023-09-12T02:25:49;12.52;;;5.30;;
74892;SDS011;63446;56.272;43.922;2023-09-12T02:28:14;11.80;;;5.47;;
74892;SDS011;63446;56.272;43.922;2023-09-12T02:30:41;12.45;;;5.55;;
74892;SDS011;63446;56.272;43.922;2023-09-12T02:33:07;11.85;;;5.88;;
74892;SDS011;63446;56.272;43.922;2023-09-12T02:35:32;11.47;;;5.43;;
74892;SDS011;63446;56.272;43.922;2023-09-12T02:37:59;14.88;;;5.72;;
74892;SDS011;63446;56.272;43.922;2023-09-12T02:40:24;19.27;;;5.90;;
74892;SDS011;63446;56.272;43.922;2023-09-12T02:42:51;14.15;;;6.03;;
74892;SDS011;63446;56.272;43.922;2023-09-12T02:45:17;13.00;;;6.07;;
74892;SDS011;63446;56.272;43.922;2023-09-12T02:47:44;14.63;;;5.70;;
74892;SDS011;63446;56.272;43.922;2023-09-12T02:50:11;13.43;;;6.18;;
74892;SDS011;63446;56.272;43.922;2023-09-12T02:52:38;15.93;;;6.55;;
74892;SDS011;63446;56.272;43.922;2023-09-12T02:55:04;14.70;;;6.13;;
74892;SDS011;63446;56.272;43.922;2023-09-12T02:57:30;16.50;;;5.90;;
74892;SDS011;63446;56.272;43.922;2023-09-12T02:59:56;13.43;;;5.63;;
74892;SDS011;63446;56.272;43.922;2023-09-12T03:02:22;13.40;;;5.50;;
74892;SDS011;63446;56.272;43.922;2023-09-12T03:04:48;13.40;;;6.20;;
74892;SDS011;63446;56.272;43.922;2023-09-12T03:07:14;13.73;;;6.00;;
74892;SDS011;63446;56.272;43.922;2023-09-12T03:09:39;16.33;;;7.45;;
74892;SDS011;63446;56.272;43.922;2023-09-12T03:12:05;19.13;;;6.82;;
74892;SDS011;63446;56.272;43.922;2023-09-12T03:14:31;17.50;;;6.53;;
74892;SDS011;63446;56.272;43.922;2023-09-12T03:16:58;14.15;;;6.30;;
74892;SDS011;63446;56.272;43.922;2023-09-12T03:19:24;14.60;;;6.40;;
74892;SDS011;63446;56.272;43.922;2023-09-12T03:21:50;15.52;;;5.78;;
74892;SDS011;63446;56.272;43.922;2023-09-12T03:24:16;12.37;;;5.60;;
74892;SDS011;63446;56.272;43.922;2023-09-12T03:26:44;17.40;;;6.05;;
74892;SDS011;63446;56.272;43.922;2023-09-12T03:29:10;12.68;;;6.00;;
74892;SDS011;63446;56.272;43.922;2023-09-12T03:31:36;17.80;;;6.40;;
74892;SDS011;63446;56.272;43.922;2023-09-12T03:34:02;15.68;;;6.20;;
74892;SDS011;63446;56.272;43.922;2023-09-12T03:36:28;15.93;;;6.38;;
74892;SDS011;63446;56.272;43.922;2023-09-12T03:38:54;15.03;;;5.90;;
74892;SDS011;63446;56.272;43.922;2023-09-12T03:41:20;15.98;;;6.35;;
74892;SDS011;63446;56.272;43.922;2023-09-12T03:43:52;15.98;;;6.53;;
74892;SDS011;63446;56.272;43.922;2023-09-12T03:46:19;13.47;;;6.40;;
74892;SDS011;63446;56.272;43.922;2023-09-12T03:48:44;14.77;;;6.22;;
74892;SDS011;63446;56.272;43.922;2023-09-12T03:51:11;10.70;;;5.93;;
74892;SDS011;63446;56.272;43.922;2023-09-12T03:53:38;18.70;;;6.97;;
74892;SDS011;63446;56.272;43.922;2023-09-12T03:56:04;14.63;;;6.43;;
74892;SDS011;63446;56.272;43.922;2023-09-12T03:58:32;14.80;;;6.30;;
74892;SDS011;63446;56.272;43.922;2023-09-12T04:00:58;15.70;;;6.63;;
74892;SDS011;63446;56.272;43.922;2023-09-12T04:03:24;14.07;;;6.77;;
74892;SDS011;63446;56.272;43.922;2023-09-12T04:05:50;11.95;;;6.20;;
74892;SDS011;63446;56.272;43.922;2023-09-12T04:08:16;12.18;;;6.30;;
74892;SDS011;63446;56.272;43.922;2023-09-12T04:10:43;13.13;;;6.40;;
74892;SDS011;63446;56.272;43.922;2023-09-12T04:13:09;11.70;;;6.00;;
74892;SDS011;63446;56.272;43.922;2023-09-12T04:15:35;19.52;;;7.22;;
74892;SDS011;63446;56.272;43.922;2023-09-12T04:18:02;16.37;;;6.63;;
74892;SDS011;63446;56.272;43.922;2023-09-12T04:20:28;22.48;;;7.20;;
74892;SDS011;63446;56.272;43.922;2023-09-12T04:22:54;19.92;;;7.57;;
74892;SDS011;63446;56.272;43.922;2023-09-12T04:25:20;15.23;;;6.87;;
74892;SDS011;63446;56.272;43.922;2023-09-12T04:27:46;15.55;;;7.45;;
74892;SDS011;63446;56.272;43.922;2023-09-12T04:30:12;14.07;;;6.53;;
74892;SDS011;63446;56.272;43.922;2023-09-12T04:32:38;20.33;;;7.95;;
74892;SDS011;63446;56.272;43.922;2023-09-12T04:35:04;24.85;;;8.65;;
74892;SDS011;63446;56.272;43.922;2023-09-12T04:37:31;19.23;;;8.57;;
74892;SDS011;63446;56.272;43.922;2023-09-12T04:39:57;19.97;;;8.87;;
74892;SDS011;63446;56.272;43.922;2023-09-12T04:42:23;18.92;;;8.20;;
74892;SDS011;63446;56.272;43.922;2023-09-12T04:44:49;19.63;;;8.75;;
74892;SDS011;63446;56.272;43.922;2023-09-12T04:47:15;18.90;;;8.35;;
74892;SDS011;63446;56.272;43.922;2023-09-12T04:49:41;13.83;;;7.20;;
74892;SDS011;63446;56.272;43.922;2023-09-12T04:52:09;16.33;;;7.90;;
74892;SDS011;63446;56.272;43.922;2023-09-12T04:54:35;14.82;;;8.05;;
74892;SDS011;63446;56.272;43.922;2023-09-12T04:57:02;16.20;;;7.53;;
74892;SDS011;63446;56.272;43.922;2023-09-12T04:59:29;15.60;;;8.07;;
74892;SDS011;63446;56.272;43.922;2023-09-12T05:01:55;14.90;;;7.82;;
74892;SDS011;63446;56.272;43.922;2023-09-12T05:04:21;15.43;;;7.68;;
74892;SDS011;63446;56.272;43.922;2023-09-12T05:06:47;12.13;;;7.77;;
74892;SDS011;63446;56.272;43.922;2023-09-12T05:09:13;17.20;;;7.68;;
74892;SDS011;63446;56.272;43.922;2023-09-12T05:11:39;14.80;;;8.20;;
74892;SDS011;63446;56.272;43.922;2023-09-12T05:14:05;19.87;;;8.43;;
74892;SDS011;63446;56.272;43.922;2023-09-12T05:16:31;18.50;;;9.45;;
74892;SDS011;63446;56.272;43.922;2023-09-12T05:18:57;19.90;;;9.15;;
74892;SDS011;63446;56.272;43.922;2023-09-12T05:21:23;17.47;;;8.73;;
74892;SDS011;63446;56.272;43.922;2023-09-12T05:23:49;18.80;;;9.02;;
74892;SDS011;63446;56.272;43.922;2023-09-12T05:26:15;18.30;;;9.35;;
74892;SDS011;63446;56.272;43.922;2023-09-12T05:28:41;20.13;;;9.17;;
74892;SDS011;63446;56.272;43.922;2023-09-12T05:31:07;17.95;;;8.77;;
74892;SDS011;63446;56.272;43.922;2023-09-12T05:33:34;15.70;;;9.30;;
74892;SDS011;63446;56.272;43.922;2023-09-12T05:36:00;23.15;;;9.82;;
74892;SDS011;63446;56.272;43.922;2023-09-12T05:38:27;22.67;;;9.83;;
74892;SDS011;63446;56.272;43.922;2023-09-12T05:40:53;17.25;;;9.40;;
74892;SDS011;63446;56.272;43.922;2023-09-12T05:43:19;23.07;;;9.13;;
74892;SDS011;63446;56.272;43.922;2023-09-12T05:45:45;23.27;;;9.70;;
74892;SDS011;63446;56.272;43.922;2023-09-12T05:48:11;20.48;;;9.85;;
74892;SDS011;63446;56.272;43.922;2023-09-12T05:50:37;57.53;;;12.00;;
74892;SDS011;63446;56.272;43.922;2023-09-12T05:53:03;92.63;;;12.77;;
74892;SDS011;63446;56.272;43.922;2023-09-12T05:55:29;17.98;;;9.43;;
74892;SDS011;63446;56.272;43.922;2023-09-12T05:57:55;105.73;;;13.80;;
74892;SDS011;63446;56.272;43.922;2023-09-12T06:00:21;54.53;;;12.07;;
74892;SDS011;63446;56.272;43.922;2023-09-12T06:02:47;103.45;;;14.02;;
74892;SDS011;63446;56.272;43.922;2023-09-12T06:05:14;17.23;;;8.93;;
74892;SDS011;63446;56.272;43.922;2023-09-12T06:07:41;18.67;;;9.37;;
74892;SDS011;63446;56.272;43.922;2023-09-12T06:10:09;24.20;;;9.90;;
74892;SDS011;63446;56.272;43.922;2023-09-12T06:12:36;20.55;;;9.32;;
74892;SDS011;63446;56.272;43.922;2023-09-12T06:15:03;16.65;;;8.82;;
74892;SDS011;63446;56.272;43.922;2023-09-12T06:17:32;20.83;;;9.98;;
74892;SDS011;63446;56.272;43.922;2023-09-12T06:19:58;19.23;;;9.07;;
74892;SDS011;63446;56.272;43.922;2023-09-12T06:22:24;21.17;;;10.02;;
74892;SDS011;63446;56.272;43.922;2023-09-12T06:24:50;16.25;;;9.00;;
74892;SDS011;63446;56.272;43.922;2023-09-12T06:27:17;18.05;;;9.75;;
74892;SDS011;63446;56.272;43.922;2023-09-12T06:29:44;17.60;;;9.67;;
74892;SDS011;63446;56.272;43.922;2023-09-12T06:32:13;20.67;;;10.65;;
74892;SDS011;63446;56.272;43.922;2023-09-12T06:34:48;23.38;;;11.45;;
74892;SDS011;63446;56.272;43.922;2023-09-12T06:37:14;21.02;;;11.18;;
74892;SDS011;63446;56.272;43.922;2023-09-12T06:39:40;18.57;;;10.80;;
74892;SDS011;63446;56.272;43.922;2023-09-12T06:42:07;22.98;;;10.80;;
74892;SDS011;63446;56.272;43.922;2023-09-12T06:44:34;22.80;;;11.35;;
74892;SDS011;63446;56.272;43.922;2023-09-12T06:46:59;19.87;;;10.80;;
74892;SDS011;63446;56.272;43.922;2023-09-12T06:49:25;19.95;;;8.80;;
74892;SDS011;63446;56.272;43.922;2023-09-12T06:51:51;18.00;;;9.03;;
74892;SDS011;63446;56.272;43.922;2023-09-12T06:54:17;16.15;;;8.38;;
74892;SDS011;63446;56.272;43.922;2023-09-12T06:56:43;19.63;;;9.10;;
74892;SDS011;63446;56.272;43.922;2023-09-12T06:59:09;16.87;;;9.30;;
74892;SDS011;63446;56.272;43.922;2023-09-12T07:01:35;20.50;;;9.50;;
74892;SDS011;63446;56.272;43.922;2023-09-12T07:04:01;17.60;;;8.82;;
74892;SDS011;63446;56.272;43.922;2023-09-12T07:06:28;15.23;;;8.90;;
74892;SDS011;63446;56.272;43.922;2023-09-12T07:08:55;18.40;;;9.15;;
74892;SDS011;63446;56.272;43.922;2023-09-12T07:11:21;17.70;;;9.30;;
74892;SDS011;63446;56.272;43.922;2023-09-12T07:13:47;20.23;;;9.52;;
74892;SDS011;63446;56.272;43.922;2023-09-12T07:16:13;13.38;;;7.80;;
74892;SDS011;63446;56.272;43.922;2023-09-12T07:18:39;13.43;;;7.13;;
74892;SDS011;63446;56.272;43.922;2023-09-12T07:21:05;19.95;;;8.45;;
74892;SDS011;63446;56.272;43.922;2023-09-12T07:23:32;13.52;;;7.57;;
74892;SDS011;63446;56.272;43.922;2023-09-12T07:25:59;14.20;;;7.50;;
74892;SDS011;63446;56.272;43.922;2023-09-12T07:28:26;20.33;;;7.68;;
74892;SDS011;63446;56.272;43.922;2023-09-12T07:30:52;13.57;;;7.70;;
74892;SDS011;63446;56.272;43.922;2023-09-12T07:33:19;13.25;;;7.88;;
74892;SDS011;63446;56.272;43.922;2023-09-12T07:35:46;13.27;;;7.38;;
74892;SDS011;63446;56.272;43.922;2023-09-12T07:38:13;17.30;;;8.10;;
74892;SDS011;63446;56.272;43.922;2023-09-12T07:40:41;15.48;;;7.25;;
74892;SDS011;63446;56.272;43.922;2023-09-12T07:43:07;15.67;;;6.50;;
74892;SDS011;63446;56.272;43.922;2023-09-12T07:45:35;13.38;;;6.78;;
74892;SDS011;63446;56.272;43.922;2023-09-12T07:48:05;15.52;;;6.60;;
74892;SDS011;63446;56.272;43.922;2023-09-12T07:50:32;14.43;;;6.85;;
74892;SDS011;63446;56.272;43.922;2023-09-12T07:52:58;11.20;;;6.13;;
74892;SDS011;63446;56.272;43.922;2023-09-12T07:55:24;10.20;;;5.70;;
74892;SDS011;63446;56.272;43.922;2023-09-12T07:57:50;16.83;;;6.03;;
74892;SDS011;63446;56.272;43.922;2023-09-12T08:00:16;12.67;;;6.03;;
74892;SDS011;63446;56.272;43.922;2023-09-12T08:02:42;11.63;;;4.60;;
74892;SDS011;63446;56.272;43.922;2023-09-12T08:05:08;10.15;;;5.70;;
74892;SDS011;63446;56.272;43.922;2023-09-12T08:07:34;10.93;;;5.45;;
74892;SDS011;63446;56.272;43.922;2023-09-12T08:10:00;10.73;;;5.27;;
74892;SDS011;63446;56.272;43.922;2023-09-12T08:12:27;10.10;;;5.03;;
74892;SDS011;63446;56.272;43.922;2023-09-12T08:14:54;9.43;;;5.00;;
74892;SDS011;63446;56.272;43.922;2023-09-12T08:17:21;11.32;;;5.80;;
74892;SDS011;63446;56.272;43.922;2023-09-12T08:19:47;9.82;;;5.05;;
74892;SDS011;63446;56.272;43.922;2023-09-12T08:22:14;10.70;;;5.10;;
74892;SDS011;63446;56.272;43.922;2023-09-12T08:24:40;12.13;;;5.55;;
74892;SDS011;63446;56.272;43.922;2023-09-12T08:27:06;8.70;;;4.88;;
74892;SDS011;63446;56.272;43.922;2023-09-12T08:29:33;9.20;;;5.20;;
74892;SDS011;63446;56.272;43.922;2023-09-12T08:32:00;12.70;;;5.13;;
74892;SDS011;63446;56.272;43.922;2023-09-12T08:34:26;8.70;;;4.60;;
74892;SDS011;63446;56.272;43.922;2023-09-12T08:36:52;13.70;;;5.18;;
74892;SDS011;63446;56.272;43.922;2023-09-12T08:39:23;8.30;;;4.88;;
74892;SDS011;63446;56.272;43.922;2023-09-12T08:41:51;9.57;;;4.90;;
74892;SDS011;63446;56.272;43.922;2023-09-12T08:44:18;9.30;;;4.47;;
74892;SDS011;63446;56.272;43.922;2023-09-12T08:46:45;9.57;;;4.70;;
74892;SDS011;63446;56.272;43.922;2023-09-12T08:49:11;8.63;;;3.92;;
74892;SDS011;63446;56.272;43.922;2023-09-12T08:51:37;8.32;;;4.30;;
74892;SDS011;63446;56.272;43.922;2023-09-12T08:54:04;7.70;;;4.10;;
74892;SDS011;63446;56.272;43.922;2023-09-12T08:56:31;7.15;;;4.22;;
74892;SDS011;63446;56.272;43.922;2023-09-12T08:58:58;9.00;;;3.80;;
74892;SDS011;63446;56.272;43.922;2023-09-12T09:01:25;7.82;;;3.53;;
74892;SDS011;63446;56.272;43.922;2023-09-12T09:03:53;9.27;;;3.50;;
74892;SDS011;63446;56.272;43.922;2023-09-12T09:06:19;8.18;;;3.33;;
74892;SDS011;63446;56.272;43.922;2023-09-12T09:08:48;7.32;;;3.10;;
74892;SDS011;63446;56.272;43.922;2023-09-12T09:11:14;8.40;;;3.53;;
74892;SDS011;63446;56.272;43.922;2023-09-12T09:13:41;7.80;;;3.30;;
74892;SDS011;63446;56.272;43.922;2023-09-12T09:18:52;8.02;;;3.40;;
74892;SDS011;63446;56.272;43.922;2023-09-12T09:21:27;5.78;;;2.72;;
74892;SDS011;63446;56.272;43.922;2023-09-12T09:23:56;4.57;;;2.60;;
74892;SDS011;63446;56.272;43.922;2023-09-12T09:26:23;5.47;;;3.00;;
74892;SDS011;63446;56.272;43.922;2023-09-12T09:29:05;7.15;;;3.00;;
74892;SDS011;63446;56.272;43.922;2023-09-12T09:31:34;8.52;;;3.20;;
74892;SDS011;63446;56.272;43.922;2023-09-12T09:34:00;12.80;;;3.70;;
74892;SDS011;63446;56.272;43.922;2023-09-12T09:36:31;5.57;;;3.00;;
74892;SDS011;63446;56.272;43.922;2023-09-12T09:38:58;5.20;;;3.15;;
74892;SDS011;63446;56.272;43.922;2023-09-12T09:41:25;5.65;;;3.00;;
74892;SDS011;63446;56.272;43.922;2023-09-12T09:43:52;9.65;;;3.58;;
74892;SDS011;63446;56.272;43.922;2023-09-12T09:46:18;9.30;;;3.93;;
74892;SDS011;63446;56.272;43.922;2023-09-12T09:48:50;10.68;;;3.53;;
74892;SDS011;63446;56.272;43.922;2023-09-12T09:51:18;6.53;;;3.50;;
74892;SDS011;63446;56.272;43.922;2023-09-12T09:53:44;9.55;;;3.83;;
74892;SDS011;63446;56.272;43.922;2023-09-12T09:56:14;13.75;;;3.92;;
74892;SDS011;63446;56.272;43.922;2023-09-12T09:58:54;6.87;;;3.33;;
74892;SDS011;63446;56.272;43.922;2023-09-12T10:01:28;8.75;;;3.65;;
74892;SDS011;63446;56.272;43.922;2023-09-12T10:04:06;7.03;;;3.33;;
74892;SDS011;63446;56.272;43.922;2023-09-12T10:06:33;7.10;;;3.75;;
74892;SDS011;63446;56.272;43.922;2023-09-12T10:09:04;5.88;;;3.30;;
74892;SDS011;63446;56.272;43.922;2023-09-12T10:11:35;5.97;;;3.50;;
74892;SDS011;63446;56.272;43.922;2023-09-12T10:14:03;9.73;;;3.90;;
74892;SDS011;63446;56.272;43.922;2023-09-12T10:16:35;9.73;;;3.85;;
74892;SDS011;63446;56.272;43.922;2023-09-12T10:21:45;5.13;;;3.13;;
74892;SDS011;63446;56.272;43.922;2023-09-12T10:24:15;7.30;;;3.53;;
74892;SDS011;63446;56.272;43.922;2023-09-12T10:26:44;5.65;;;3.30;;
74892;SDS011;63446;56.272;43.922;2023-09-12T10:29:12;8.55;;;3.40;;
74892;SDS011;63446;56.272;43.922;2023-09-12T10:31:39;5.93;;;3.40;;
74892;SDS011;63446;56.272;43.922;2023-09-12T10:34:06;7.55;;;3.47;;
74892;SDS011;63446;56.272;43.922;2023-09-12T10:36:43;6.23;;;3.73;;
74892;SDS011;63446;56.272;43.922;2023-09-12T10:39:11;6.43;;;3.55;;
74892;SDS011;63446;56.272;43.922;2023-09-12T10:41:40;5.43;;;3.35;;
74892;SDS011;63446;56.272;43.922;2023-09-12T10:44:11;6.50;;;3.67;;
74892;SDS011;63446;56.272;43.922;2023-09-12T10:46:40;6.38;;;3.50;;
74892;SDS011;63446;56.272;43.922;2023-09-12T10:49:08;9.53;;;3.77;;
74892;SDS011;63446;56.272;43.922;2023-09-12T10:51:40;6.72;;;3.20;;
74892;SDS011;63446;56.272;43.922;2023-09-12T10:54:08;5.43;;;3.35;;
74892;SDS011;63446;56.272;43.922;2023-09-12T10:56:37;6.60;;;3.60;;
74892;SDS011;63446;56.272;43.922;2023-09-12T11:01:30;7.30;;;3.70;;
74892;SDS011;63446;56.272;43.922;2023-09-12T11:03:57;7.45;;;3.30;;
74892;SDS011;63446;56.272;43.922;2023-09-12T11:06:32;5.63;;;3.38;;
74892;SDS011;63446;56.272;43.922;2023-09-12T11:09:31;8.83;;;3.50;;
74892;SDS011;63446;56.272;43.922;2023-09-12T11:11:57;8.68;;;3.30;;
74892;SDS011;63446;56.272;43.922;2023-09-12T11:14:29;5.32;;;3.22;;
74892;SDS011;63446;56.272;43.922;2023-09-12T11:19:48;5.57;;;3.08;;
74892;SDS011;63446;56.272;43.922;2023-09-12T11:24:54;7.82;;;2.75;;
74892;SDS011;63446;56.272;43.922;2023-09-12T11:27:25;5.40;;;2.70;;
74892;SDS011;63446;56.272;43.922;2023-09-12T11:30:10;5.47;;;3.05;;
74892;SDS011;63446;56.272;43.922;2023-09-12T11:32:36;4.70;;;2.70;;
74892;SDS011;63446;56.272;43.922;2023-09-12T11:35:07;5.53;;;2.80;;
74892;SDS011;63446;56.272;43.922;2023-09-12T11:37:33;6.80;;;3.20;;
74892;SDS011;63446;56.272;43.922;2023-09-12T11:45:27;5.47;;;2.80;;
74892;SDS011;63446;56.272;43.922;2023-09-12T11:47:53;8.67;;;3.07;;
74892;SDS011;63446;56.272;43.922;2023-09-12T11:56:35;5.53;;;2.88;;
74892;SDS011;63446;56.272;43.922;2023-09-12T11:59:00;7.30;;;3.00;;
74892;SDS011;63446;56.272;43.922;2023-09-12T12:01:26;6.35;;;2.92;;
74892;SDS011;63446;56.272;43.922;2023-09-12T12:03:54;5.40;;;3.28;;
74892;SDS011;63446;56.272;43.922;2023-09-12T12:06:22;4.63;;;2.40;;
74892;SDS011;63446;56.272;43.922;2023-09-12T12:08:47;5.88;;;2.67;;
74892;SDS011;63446;56.272;43.922;2023-09-12T12:11:14;15.27;;;2.90;;
74892;SDS011;63446;56.272;43.922;2023-09-12T12:17:21;7.07;;;3.40;;
74892;SDS011;63446;56.272;43.922;2023-09-12T12:19:48;8.48;;;3.88;;
74892;SDS011;63446;56.272;43.922;2023-09-12T12:22:15;6.30;;;3.50;;
74892;SDS011;63446;56.272;43.922;2023-09-12T12:28:22;5.68;;;3.22;;
74892;SDS011;63446;56.272;43.922;2023-09-12T12:30:50;6.82;;;3.28;;
74892;SDS011;63446;56.272;43.922;2023-09-12T12:33:20;5.82;;;3.03;;
74892;SDS011;63446;56.272;43.922;2023-09-12T12:35:46;5.85;;;3.35;;
74892;SDS011;63446;56.272;43.922;2023-09-12T12:38:12;6.23;;;3.27;;
74892;SDS011;63446;56.272;43.922;2023-09-12T12:40:38;6.00;;;2.97;;
74892;SDS011;63446;56.272;43.922;2023-09-12T12:43:17;5.55;;;3.00;;
74892;SDS011;63446;56.272;43.922;2023-09-12T12:45:54;5.00;;;2.70;;
74892;SDS011;63446;56.272;43.922;2023-09-12T12:48:34;5.03;;;3.08;;
74892;SDS011;63446;56.272;43.922;2023-09-12T12:54:43;4.43;;;2.75;;
74892;SDS011;63446;56.272;43.922;2023-09-12T12:57:09;5.93;;;2.97;;
74892;SDS011;63446;56.272;43.922;2023-09-12T12:59:44;6.80;;;3.25;;
74892;SDS011;63446;56.272;43.922;2023-09-12T13:02:11;5.13;;;2.80;;
74892;SDS011;63446;56.272;43.922;2023-09-12T13:04:37;7.03;;;3.00;;
74892;SDS011;63446;56.272;43.922;2023-09-12T13:07:03;5.13;;;2.85;;
74892;SDS011;63446;56.272;43.922;2023-09-12T13:09:29;5.20;;;2.90;;
74892;SDS011;63446;56.272;43.922;2023-09-12T13:11:55;4.50;;;2.78;;
74892;SDS011;63446;56.272;43.922;2023-09-12T13:14:22;9.77;;;3.10;;
74892;SDS011;63446;56.272;43.922;2023-09-12T13:16:58;4.80;;;2.50;;
74892;SDS011;63446;56.272;43.922;2023-09-12T13:19:25;6.40;;;2.85;;
74892;SDS011;63446;56.272;43.922;2023-09-12T13:21:52;10.43;;;2.95;;
74892;SDS011;63446;56.272;43.922;2023-09-12T13:24:17;7.20;;;3.40;;
74892;SDS011;63446;56.272;43.922;2023-09-12T13:26:44;9.13;;;3.05;;
74892;SDS011;63446;56.272;43.922;2023-09-12T13:29:10;6.93;;;3.03;;
74892;SDS011;63446;56.272;43.922;2023-09-12T13:31:36;7.90;;;3.17;;
74892;SDS011;63446;56.272;43.922;2023-09-12T13:34:02;4.65;;;2.40;;
74892;SDS011;63446;56.272;43.922;2023-09-12T13:36:28;4.10;;;2.20;;
74892;SDS011;63446;56.272;43.922;2023-09-12T13:38:54;5.47;;;2.27;;
74892;SDS011;63446;56.272;43.922;2023-09-12T13:41:21;6.13;;;2.53;;
74892;SDS011;63446;56.272;43.922;2023-09-12T13:43:48;7.13;;;2.40;;
74892;SDS011;63446;56.272;43.922;2023-09-12T13:46:14;6.83;;;2.33;;
74892;SDS011;63446;56.272;43.922;2023-09-12T13:48:41;5.88;;;2.40;;
74892;SDS011;63446;56.272;43.922;2023-09-12T13:51:07;6.75;;;2.53;;
74892;SDS011;63446;56.272;43.922;2023-09-12T13:53:33;3.90;;;2.13;;
74892;SDS011;63446;56.272;43.922;2023-09-12T13:55:59;8.55;;;2.83;;
74892;SDS011;63446;56.272;43.922;2023-09-12T13:58:26;5.80;;;2.70;;
74892;SDS011;63446;56.272;43.922;2023-09-12T14:00:52;5.87;;;2.60;;
74892;SDS011;63446;56.272;43.922;2023-09-12T14:03:18;6.00;;;2.53;;
74892;SDS011;63446;56.272;43.922;2023-09-12T14:05:45;6.25;;;2.72;;
74892;SDS011;63446;56.272;43.922;2023-09-12T14:08:12;5.88;;;3.10;;
74892;SDS011;63446;56.272;43.922;2023-09-12T14:10:38;6.23;;;2.80;;
74892;SDS011;63446;56.272;43.922;2023-09-12T14:13:04;11.05;;;3.47;;
74892;SDS011;63446;56.272;43.922;2023-09-12T14:15:29;6.37;;;2.83;;
74892;SDS011;63446;56.272;43.922;2023-09-12T14:17:55;8.27;;;2.80;;
74892;SDS011;63446;56.272;43.922;2023-09-12T14:20:21;7.83;;;3.00;;
74892;SDS011;63446;56.272;43.922;2023-09-12T14:22:46;7.05;;;2.90;;
74892;SDS011;63446;56.272;43.922;2023-09-12T14:25:12;8.40;;;2.95;;
74892;SDS011;63446;56.272;43.922;2023-09-12T14:27:41;11.23;;;3.07;;
74892;SDS011;63446;56.272;43.922;2023-09-12T14:30:09;8.32;;;3.20;;
74892;SDS011;63446;56.272;43.922;2023-09-12T14:32:36;6.28;;;2.78;;
74892;SDS011;63446;56.272;43.922;2023-09-12T14:35:03;6.53;;;3.00;;
74892;SDS011;63446;56.272;43.922;2023-09-12T14:37:29;5.00;;;2.65;;
74892;SDS011;63446;56.272;43.922;2023-09-12T14:39:55;7.73;;;2.97;;
74892;SDS011;63446;56.272;43.922;2023-09-12T14:42:21;9.10;;;3.00;;
74892;SDS011;63446;56.272;43.922;2023-09-12T14:44:47;5.85;;;3.05;;
74892;SDS011;63446;56.272;43.922;2023-09-12T14:47:14;7.03;;;3.10;;
74892;SDS011;63446;56.272;43.922;2023-09-12T14:49:40;8.88;;;3.22;;
74892;SDS011;63446;56.272;43.922;2023-09-12T14:52:06;9.48;;;3.28;;
74892;SDS011;63446;56.272;43.922;2023-09-12T14:54:32;7.80;;;2.90;;
74892;SDS011;63446;56.272;43.922;2023-09-12T14:56:59;9.00;;;3.42;;
74892;SDS011;63446;56.272;43.922;2023-09-12T14:59:24;7.10;;;3.30;;
74892;SDS011;63446;56.272;43.922;2023-09-12T15:01:50;7.70;;;3.37;;
74892;SDS011;63446;56.272;43.922;2023-09-12T15:04:16;8.17;;;3.27;;
74892;SDS011;63446;56.272;43.922;2023-09-12T15:06:41;6.10;;;3.30;;
74892;SDS011;63446;56.272;43.922;2023-09-12T15:09:07;9.37;;;4.10;;